sensor_id;sensor_type;location;lat;lon;timestamp;P1;durP1;ratioP1;P2;durP2;ratioP2
21833;SDS011;11079;51.092;3.458;2022-09-29T00:02:15;7.78;;;4.90;;
21833;SDS011;11079;51.092;3.458;2022-09-29T00:04:41;7.85;;;5.20;;
21833;SDS011;11079;51.092;3.458;2022-09-29T00:07:07;5.65;;;4.65;;
21833;SDS011;11079;51.092;3.458;2022-09-29T00:09:32;6.47;;;5.68;;
21833;SDS011;11079;51.092;3.458;2022-09-29T00:11:58;7.60;;;5.80;;
21833;SDS011;11079;51.092;3.458;2022-09-29T00:14:24;7.45;;;5.78;;
21833;SDS011;11079;51.092;3.458;2022-09-29T00:16:50;7.60;;;6.00;;
21833;SDS011;11079;51.092;3.458;2022-09-29T00:19:17;7.18;;;5.72;;
21833;SDS011;11079;51.092;3.458;2022-09-29T00:21:43;7.95;;;5.70;;
21833;SDS011;11079;51.092;3.458;2022-09-29T00:24:09;10.02;;;5.60;;
21833;SDS011;11079;51.092;3.458;2022-09-29T00:26:35;6.93;;;5.93;;
21833;SDS011;11079;51.092;3.458;2022-09-29T00:29:00;8.80;;;5.68;;
21833;SDS011;11079;51.092;3.458;2022-09-29T00:31:27;7.82;;;6.07;;
21833;SDS011;11079;51.092;3.458;2022-09-29T00:33:54;8.20;;;6.20;;
21833;SDS011;11079;51.092;3.458;2022-09-29T00:36:20;9.93;;;7.05;;
21833;SDS011;11079;51.092;3.458;2022-09-29T00:38:48;10.73;;;6.97;;
21833;SDS011;11079;51.092;3.458;2022-09-29T00:41:16;10.60;;;6.90;;
21833;SDS011;11079;51.092;3.458;2022-09-29T00:49:02;10.20;;;8.98;;
21833;SDS011;11079;51.092;3.458;2022-09-29T00:51:41;14.00;;;9.20;;
21833;SDS011;11079;51.092;3.458;2022-09-29T00:54:24;14.15;;;9.73;;
21833;SDS011;11079;51.092;3.458;2022-09-29T00:56:52;14.48;;;9.88;;
21833;SDS011;11079;51.092;3.458;2022-09-29T00:59:26;11.82;;;9.80;;
21833;SDS011;11079;51.092;3.458;2022-09-29T01:02:16;13.88;;;10.38;;
21833;SDS011;11079;51.092;3.458;2022-09-29T01:04:43;11.88;;;10.02;;
21833;SDS011;11079;51.092;3.458;2022-09-29T01:07:11;12.00;;;9.85;;
21833;SDS011;11079;51.092;3.458;2022-09-29T01:09:37;15.50;;;10.75;;
21833;SDS011;11079;51.092;3.458;2022-09-29T01:12:34;15.93;;;11.30;;
21833;SDS011;11079;51.092;3.458;2022-09-29T01:14:59;13.80;;;12.23;;
21833;SDS011;11079;51.092;3.458;2022-09-29T01:17:26;15.88;;;11.50;;
21833;SDS011;11079;51.092;3.458;2022-09-29T01:28:16;13.65;;;11.57;;
21833;SDS011;11079;51.092;3.458;2022-09-29T01:34:02;14.35;;;11.80;;
21833;SDS011;11079;51.092;3.458;2022-09-29T01:42:26;13.13;;;10.68;;
21833;SDS011;11079;51.092;3.458;2022-09-29T01:45:14;11.48;;;10.27;;
21833;SDS011;11079;51.092;3.458;2022-09-29T01:47:51;11.85;;;9.65;;
21833;SDS011;11079;51.092;3.458;2022-09-29T01:50:43;14.35;;;10.23;;
21833;SDS011;11079;51.092;3.458;2022-09-29T01:53:12;12.38;;;9.70;;
21833;SDS011;11079;51.092;3.458;2022-09-29T01:55:48;10.75;;;9.57;;
21833;SDS011;11079;51.092;3.458;2022-09-29T01:58:24;11.65;;;9.65;;
21833;SDS011;11079;51.092;3.458;2022-09-29T02:01:01;10.85;;;9.00;;
21833;SDS011;11079;51.092;3.458;2022-09-29T02:03:34;10.75;;;8.80;;
21833;SDS011;11079;51.092;3.458;2022-09-29T02:06:26;9.95;;;8.73;;
21833;SDS011;11079;51.092;3.458;2022-09-29T02:09:33;10.10;;;8.80;;
21833;SDS011;11079;51.092;3.458;2022-09-29T02:12:04;9.77;;;8.77;;
21833;SDS011;11079;51.092;3.458;2022-09-29T02:14:39;10.85;;;8.65;;
21833;SDS011;11079;51.092;3.458;2022-09-29T02:17:16;11.02;;;9.10;;
21833;SDS011;11079;51.092;3.458;2022-09-29T02:19:46;10.25;;;9.07;;
21833;SDS011;11079;51.092;3.458;2022-09-29T02:22:15;11.52;;;9.32;;
21833;SDS011;11079;51.092;3.458;2022-09-29T02:24:42;11.05;;;8.77;;
21833;SDS011;11079;51.092;3.458;2022-09-29T02:27:08;10.63;;;9.52;;
21833;SDS011;11079;51.092;3.458;2022-09-29T02:29:35;14.52;;;9.88;;
21833;SDS011;11079;51.092;3.458;2022-09-29T02:32:01;12.52;;;9.85;;
21833;SDS011;11079;51.092;3.458;2022-09-29T02:34:30;10.82;;;9.10;;
21833;SDS011;11079;51.092;3.458;2022-09-29T02:39:47;12.02;;;9.27;;
21833;SDS011;11079;51.092;3.458;2022-09-29T02:45:20;10.95;;;9.30;;
21833;SDS011;11079;51.092;3.458;2022-09-29T02:50:56;10.35;;;9.35;;
21833;SDS011;11079;51.092;3.458;2022-09-29T02:56:43;10.32;;;9.10;;
21833;SDS011;11079;51.092;3.458;2022-09-29T02:59:34;9.73;;;7.97;;
21833;SDS011;11079;51.092;3.458;2022-09-29T03:02:12;10.38;;;9.32;;
21833;SDS011;11079;51.092;3.458;2022-09-29T03:04:40;10.38;;;9.20;;
21833;SDS011;11079;51.092;3.458;2022-09-29T03:07:05;10.82;;;9.73;;
21833;SDS011;11079;51.092;3.458;2022-09-29T03:09:31;11.13;;;9.38;;
21833;SDS011;11079;51.092;3.458;2022-09-29T03:11:59;11.93;;;9.98;;
21833;SDS011;11079;51.092;3.458;2022-09-29T03:14:25;11.27;;;9.90;;
21833;SDS011;11079;51.092;3.458;2022-09-29T03:16:50;14.80;;;11.63;;
21833;SDS011;11079;51.092;3.458;2022-09-29T03:19:16;12.88;;;10.27;;
21833;SDS011;11079;51.092;3.458;2022-09-29T03:21:42;11.27;;;10.13;;
21833;SDS011;11079;51.092;3.458;2022-09-29T03:24:07;11.55;;;9.70;;
21833;SDS011;11079;51.092;3.458;2022-09-29T03:26:33;10.68;;;9.48;;
21833;SDS011;11079;51.092;3.458;2022-09-29T03:28:58;10.85;;;8.85;;
21833;SDS011;11079;51.092;3.458;2022-09-29T03:31:24;11.45;;;9.30;;
21833;SDS011;11079;51.092;3.458;2022-09-29T03:33:49;9.18;;;8.25;;
21833;SDS011;11079;51.092;3.458;2022-09-29T03:36:15;9.05;;;7.97;;
21833;SDS011;11079;51.092;3.458;2022-09-29T03:38:41;10.23;;;8.80;;
21833;SDS011;11079;51.092;3.458;2022-09-29T03:41:08;11.18;;;8.35;;
21833;SDS011;11079;51.092;3.458;2022-09-29T03:43:33;10.30;;;8.75;;
21833;SDS011;11079;51.092;3.458;2022-09-29T03:45:59;12.07;;;8.40;;
21833;SDS011;11079;51.092;3.458;2022-09-29T03:48:29;9.15;;;8.25;;
21833;SDS011;11079;51.092;3.458;2022-09-29T03:50:55;9.75;;;8.50;;
21833;SDS011;11079;51.092;3.458;2022-09-29T03:53:21;9.32;;;7.80;;
21833;SDS011;11079;51.092;3.458;2022-09-29T03:55:55;9.60;;;7.60;;
21833;SDS011;11079;51.092;3.458;2022-09-29T03:58:21;9.65;;;8.15;;
21833;SDS011;11079;51.092;3.458;2022-09-29T04:00:47;7.35;;;6.65;;
21833;SDS011;11079;51.092;3.458;2022-09-29T04:03:14;8.82;;;7.25;;
21833;SDS011;11079;51.092;3.458;2022-09-29T04:05:40;7.90;;;7.10;;
21833;SDS011;11079;51.092;3.458;2022-09-29T04:08:06;11.27;;;6.20;;
21833;SDS011;11079;51.092;3.458;2022-09-29T04:10:36;6.78;;;5.95;;
21833;SDS011;11079;51.092;3.458;2022-09-29T04:13:02;7.97;;;6.07;;
21833;SDS011;11079;51.092;3.458;2022-09-29T04:15:28;7.00;;;5.80;;
21833;SDS011;11079;51.092;3.458;2022-09-29T04:17:54;8.18;;;5.63;;
21833;SDS011;11079;51.092;3.458;2022-09-29T04:20:20;5.60;;;5.10;;
21833;SDS011;11079;51.092;3.458;2022-09-29T04:22:45;8.68;;;5.57;;
21833;SDS011;11079;51.092;3.458;2022-09-29T04:25:11;5.85;;;5.07;;
21833;SDS011;11079;51.092;3.458;2022-09-29T04:27:36;6.72;;;5.28;;
21833;SDS011;11079;51.092;3.458;2022-09-29T04:30:02;6.05;;;5.45;;
21833;SDS011;11079;51.092;3.458;2022-09-29T04:32:29;7.90;;;5.93;;
21833;SDS011;11079;51.092;3.458;2022-09-29T04:34:54;9.00;;;6.00;;
21833;SDS011;11079;51.092;3.458;2022-09-29T04:37:20;5.60;;;5.05;;
21833;SDS011;11079;51.092;3.458;2022-09-29T04:39:46;10.65;;;5.68;;
21833;SDS011;11079;51.092;3.458;2022-09-29T04:42:11;6.32;;;4.95;;
21833;SDS011;11079;51.092;3.458;2022-09-29T04:44:37;6.70;;;4.93;;
21833;SDS011;11079;51.092;3.458;2022-09-29T04:47:02;6.25;;;5.13;;
21833;SDS011;11079;51.092;3.458;2022-09-29T04:49:28;5.97;;;5.38;;
21833;SDS011;11079;51.092;3.458;2022-09-29T04:51:56;7.95;;;5.88;;
21833;SDS011;11079;51.092;3.458;2022-09-29T04:54:22;8.07;;;5.78;;
21833;SDS011;11079;51.092;3.458;2022-09-29T04:56:48;6.57;;;5.70;;
21833;SDS011;11079;51.092;3.458;2022-09-29T04:59:14;6.20;;;5.32;;
21833;SDS011;11079;51.092;3.458;2022-09-29T05:01:41;7.47;;;5.80;;
21833;SDS011;11079;51.092;3.458;2022-09-29T05:04:07;8.43;;;6.00;;
21833;SDS011;11079;51.092;3.458;2022-09-29T05:06:34;6.65;;;6.05;;
21833;SDS011;11079;51.092;3.458;2022-09-29T05:09:03;9.15;;;6.03;;
21833;SDS011;11079;51.092;3.458;2022-09-29T05:11:29;8.65;;;5.88;;
21833;SDS011;11079;51.092;3.458;2022-09-29T05:13:55;8.82;;;6.47;;
21833;SDS011;11079;51.092;3.458;2022-09-29T05:16:21;8.95;;;6.22;;
21833;SDS011;11079;51.092;3.458;2022-09-29T05:18:46;7.40;;;6.38;;
21833;SDS011;11079;51.092;3.458;2022-09-29T05:21:12;9.05;;;6.38;;
21833;SDS011;11079;51.092;3.458;2022-09-29T05:23:38;6.88;;;6.03;;
21833;SDS011;11079;51.092;3.458;2022-09-29T05:26:04;6.20;;;5.60;;
21833;SDS011;11079;51.092;3.458;2022-09-29T05:28:31;8.07;;;6.57;;
21833;SDS011;11079;51.092;3.458;2022-09-29T05:31:00;8.88;;;5.88;;
21833;SDS011;11079;51.092;3.458;2022-09-29T05:33:27;8.65;;;6.22;;
21833;SDS011;11079;51.092;3.458;2022-09-29T05:35:53;8.95;;;7.15;;
21833;SDS011;11079;51.092;3.458;2022-09-29T05:38:19;9.93;;;8.32;;
21833;SDS011;11079;51.092;3.458;2022-09-29T05:40:46;9.85;;;8.43;;
21833;SDS011;11079;51.092;3.458;2022-09-29T05:43:12;11.13;;;8.88;;
21833;SDS011;11079;51.092;3.458;2022-09-29T05:45:38;9.52;;;8.15;;
21833;SDS011;11079;51.092;3.458;2022-09-29T05:48:04;11.65;;;8.35;;
21833;SDS011;11079;51.092;3.458;2022-09-29T05:50:29;10.10;;;8.45;;
21833;SDS011;11079;51.092;3.458;2022-09-29T05:53:00;8.95;;;8.05;;
21833;SDS011;11079;51.092;3.458;2022-09-29T05:55:27;8.57;;;7.68;;
21833;SDS011;11079;51.092;3.458;2022-09-29T05:57:52;8.90;;;7.25;;
21833;SDS011;11079;51.092;3.458;2022-09-29T06:00:18;10.15;;;9.07;;
21833;SDS011;11079;51.092;3.458;2022-09-29T06:02:44;10.35;;;8.02;;
21833;SDS011;11079;51.092;3.458;2022-09-29T06:05:09;9.07;;;7.78;;
21833;SDS011;11079;51.092;3.458;2022-09-29T06:07:35;8.90;;;7.60;;
21833;SDS011;11079;51.092;3.458;2022-09-29T06:10:00;9.98;;;8.10;;
21833;SDS011;11079;51.092;3.458;2022-09-29T06:12:26;13.52;;;9.10;;
21833;SDS011;11079;51.092;3.458;2022-09-29T06:14:52;10.95;;;8.40;;
21833;SDS011;11079;51.092;3.458;2022-09-29T06:17:17;8.75;;;7.65;;
21833;SDS011;11079;51.092;3.458;2022-09-29T06:19:43;8.02;;;7.22;;
21833;SDS011;11079;51.092;3.458;2022-09-29T06:22:08;10.35;;;7.07;;
21833;SDS011;11079;51.092;3.458;2022-09-29T06:24:34;8.82;;;6.93;;
21833;SDS011;11079;51.092;3.458;2022-09-29T06:26:59;8.40;;;6.97;;
21833;SDS011;11079;51.092;3.458;2022-09-29T06:29:25;10.82;;;7.30;;
21833;SDS011;11079;51.092;3.458;2022-09-29T06:31:51;11.90;;;6.65;;
21833;SDS011;11079;51.092;3.458;2022-09-29T06:34:18;8.52;;;7.03;;
21833;SDS011;11079;51.092;3.458;2022-09-29T06:36:45;6.95;;;6.05;;
21833;SDS011;11079;51.092;3.458;2022-09-29T06:39:29;7.47;;;6.43;;
21833;SDS011;11079;51.092;3.458;2022-09-29T06:41:55;9.82;;;6.85;;
21833;SDS011;11079;51.092;3.458;2022-09-29T06:44:22;9.02;;;7.30;;
21833;SDS011;11079;51.092;3.458;2022-09-29T06:46:50;7.93;;;6.88;;
21833;SDS011;11079;51.092;3.458;2022-09-29T06:49:16;10.88;;;6.90;;
21833;SDS011;11079;51.092;3.458;2022-09-29T06:51:43;9.95;;;7.45;;
21833;SDS011;11079;51.092;3.458;2022-09-29T06:54:10;7.80;;;6.07;;
21833;SDS011;11079;51.092;3.458;2022-09-29T06:56:39;7.93;;;5.80;;
21833;SDS011;11079;51.092;3.458;2022-09-29T06:59:05;7.95;;;4.85;;
21833;SDS011;11079;51.092;3.458;2022-09-29T07:01:31;9.77;;;5.47;;
21833;SDS011;11079;51.092;3.458;2022-09-29T07:03:57;7.82;;;5.65;;
21833;SDS011;11079;51.092;3.458;2022-09-29T07:06:24;5.70;;;5.10;;
21833;SDS011;11079;51.092;3.458;2022-09-29T07:08:54;6.32;;;5.43;;
21833;SDS011;11079;51.092;3.458;2022-09-29T07:11:20;5.97;;;4.00;;
21833;SDS011;11079;51.092;3.458;2022-09-29T07:13:46;6.35;;;4.35;;
21833;SDS011;11079;51.092;3.458;2022-09-29T07:16:12;7.10;;;5.00;;
21833;SDS011;11079;51.092;3.458;2022-09-29T07:18:39;4.72;;;4.20;;
21833;SDS011;11079;51.092;3.458;2022-09-29T07:21:07;4.10;;;3.70;;
21833;SDS011;11079;51.092;3.458;2022-09-29T07:23:34;3.33;;;3.03;;
21833;SDS011;11079;51.092;3.458;2022-09-29T07:26:01;5.40;;;3.33;;
21833;SDS011;11079;51.092;3.458;2022-09-29T07:28:27;4.70;;;3.35;;
21833;SDS011;11079;51.092;3.458;2022-09-29T07:30:57;3.08;;;2.78;;
21833;SDS011;11079;51.092;3.458;2022-09-29T07:33:27;3.47;;;2.90;;
21833;SDS011;11079;51.092;3.458;2022-09-29T07:35:56;5.78;;;2.90;;
21833;SDS011;11079;51.092;3.458;2022-09-29T07:38:24;3.05;;;2.40;;
21833;SDS011;11079;51.092;3.458;2022-09-29T07:40:53;4.70;;;2.65;;
21833;SDS011;11079;51.092;3.458;2022-09-29T07:43:19;5.22;;;3.05;;
21833;SDS011;11079;51.092;3.458;2022-09-29T07:45:49;3.63;;;2.65;;
21833;SDS011;11079;51.092;3.458;2022-09-29T07:48:16;5.65;;;2.28;;
21833;SDS011;11079;51.092;3.458;2022-09-29T07:50:43;2.50;;;2.30;;
21833;SDS011;11079;51.092;3.458;2022-09-29T07:53:09;6.45;;;2.83;;
21833;SDS011;11079;51.092;3.458;2022-09-29T07:55:36;4.45;;;2.70;;
21833;SDS011;11079;51.092;3.458;2022-09-29T07:58:02;2.97;;;2.40;;
21833;SDS011;11079;51.092;3.458;2022-09-29T08:00:28;5.22;;;2.50;;
21833;SDS011;11079;51.092;3.458;2022-09-29T08:03:00;2.65;;;2.40;;
21833;SDS011;11079;51.092;3.458;2022-09-29T08:05:28;3.17;;;2.33;;
21833;SDS011;11079;51.092;3.458;2022-09-29T08:07:58;3.00;;;2.10;;
21833;SDS011;11079;51.092;3.458;2022-09-29T08:10:43;4.80;;;3.10;;
21833;SDS011;11079;51.092;3.458;2022-09-29T08:13:23;4.55;;;2.55;;
21833;SDS011;11079;51.092;3.458;2022-09-29T08:15:55;4.00;;;2.53;;
21833;SDS011;11079;51.092;3.458;2022-09-29T08:18:25;2.55;;;2.25;;
21833;SDS011;11079;51.092;3.458;2022-09-29T08:20:52;2.58;;;1.85;;
21833;SDS011;11079;51.092;3.458;2022-09-29T08:23:20;3.15;;;1.40;;
21833;SDS011;11079;51.092;3.458;2022-09-29T08:28:38;6.95;;;1.80;;
21833;SDS011;11079;51.092;3.458;2022-09-29T08:31:08;5.93;;;2.38;;
21833;SDS011;11079;51.092;3.458;2022-09-29T08:33:35;2.67;;;2.00;;
21833;SDS011;11079;51.092;3.458;2022-09-29T08:36:03;4.82;;;2.38;;
21833;SDS011;11079;51.092;3.458;2022-09-29T08:38:38;4.93;;;1.80;;
21833;SDS011;11079;51.092;3.458;2022-09-29T08:46:45;2.53;;;1.50;;
21833;SDS011;11079;51.092;3.458;2022-09-29T08:49:17;4.53;;;1.90;;
21833;SDS011;11079;51.092;3.458;2022-09-29T08:51:49;1.88;;;1.65;;
21833;SDS011;11079;51.092;3.458;2022-09-29T08:54:21;3.33;;;1.40;;
21833;SDS011;11079;51.092;3.458;2022-09-29T08:56:48;3.22;;;1.40;;
21833;SDS011;11079;51.092;3.458;2022-09-29T08:59:14;3.58;;;1.50;;
21833;SDS011;11079;51.092;3.458;2022-09-29T09:12:37;1.77;;;1.15;;
21833;SDS011;11079;51.092;3.458;2022-09-29T09:23:21;2.03;;;1.30;;
21833;SDS011;11079;51.092;3.458;2022-09-29T09:26:06;2.55;;;1.25;;
21833;SDS011;11079;51.092;3.458;2022-09-29T09:28:35;4.22;;;1.38;;
21833;SDS011;11079;51.092;3.458;2022-09-29T09:31:23;5.13;;;0.90;;
21833;SDS011;11079;51.092;3.458;2022-09-29T09:36:34;2.10;;;1.48;;
21833;SDS011;11079;51.092;3.458;2022-09-29T09:39:13;1.92;;;1.52;;
21833;SDS011;11079;51.092;3.458;2022-09-29T09:41:44;3.78;;;1.98;;
21833;SDS011;11079;51.092;3.458;2022-09-29T09:44:16;3.95;;;2.50;;
21833;SDS011;11079;51.092;3.458;2022-09-29T09:46:54;2.63;;;2.08;;
21833;SDS011;11079;51.092;3.458;2022-09-29T09:54:53;4.05;;;1.67;;
21833;SDS011;11079;51.092;3.458;2022-09-29T10:02:43;2.03;;;1.27;;
21833;SDS011;11079;51.092;3.458;2022-09-29T10:05:12;2.42;;;1.02;;
21833;SDS011;11079;51.092;3.458;2022-09-29T10:07:40;2.28;;;1.10;;
21833;SDS011;11079;51.092;3.458;2022-09-29T10:10:12;1.98;;;1.15;;
21833;SDS011;11079;51.092;3.458;2022-09-29T10:12:43;1.85;;;0.98;;
21833;SDS011;11079;51.092;3.458;2022-09-29T10:17:55;2.55;;;1.15;;
21833;SDS011;11079;51.092;3.458;2022-09-29T10:20:42;2.17;;;1.05;;
21833;SDS011;11079;51.092;3.458;2022-09-29T10:26:11;2.67;;;0.88;;
21833;SDS011;11079;51.092;3.458;2022-09-29T10:33:47;1.60;;;0.80;;
21833;SDS011;11079;51.092;3.458;2022-09-29T10:36:15;3.35;;;1.00;;
21833;SDS011;11079;51.092;3.458;2022-09-29T10:38:44;0.90;;;0.70;;
21833;SDS011;11079;51.092;3.458;2022-09-29T10:41:25;2.10;;;0.70;;
21833;SDS011;11079;51.092;3.458;2022-09-29T10:43:51;1.85;;;0.50;;
21833;SDS011;11079;51.092;3.458;2022-09-29T10:49:20;1.13;;;0.50;;
21833;SDS011;11079;51.092;3.458;2022-09-29T10:51:50;1.70;;;0.45;;
21833;SDS011;11079;51.092;3.458;2022-09-29T10:54:25;0.93;;;0.60;;
21833;SDS011;11079;51.092;3.458;2022-09-29T10:56:53;1.58;;;0.50;;
21833;SDS011;11079;51.092;3.458;2022-09-29T10:59:20;0.75;;;0.38;;
21833;SDS011;11079;51.092;3.458;2022-09-29T11:01:58;1.50;;;0.40;;
21833;SDS011;11079;51.092;3.458;2022-09-29T11:04:32;2.05;;;0.40;;
21833;SDS011;11079;51.092;3.458;2022-09-29T11:07:07;0.30;;;0.30;;
21833;SDS011;11079;51.092;3.458;2022-09-29T11:09:36;0.30;;;0.30;;
21833;SDS011;11079;51.092;3.458;2022-09-29T11:12:27;0.50;;;0.50;;
21833;SDS011;11079;51.092;3.458;2022-09-29T11:14:59;0.52;;;0.40;;
21833;SDS011;11079;51.092;3.458;2022-09-29T11:17:37;0.75;;;0.50;;
21833;SDS011;11079;51.092;3.458;2022-09-29T11:20:04;1.08;;;0.75;;
21833;SDS011;11079;51.092;3.458;2022-09-29T11:40:09;7.53;;;1.20;;
21833;SDS011;11079;51.092;3.458;2022-09-29T11:43:01;7.07;;;0.90;;
21833;SDS011;11079;51.092;3.458;2022-09-29T11:45:47;8.18;;;1.40;;
21833;SDS011;11079;51.092;3.458;2022-09-29T11:50:58;1.00;;;0.60;;
21833;SDS011;11079;51.092;3.458;2022-09-29T11:56:16;1.35;;;0.40;;
21833;SDS011;11079;51.092;3.458;2022-09-29T12:16:07;1.13;;;0.40;;
21833;SDS011;11079;51.092;3.458;2022-09-29T12:18:41;0.32;;;0.30;;
21833;SDS011;11079;51.092;3.458;2022-09-29T12:21:12;0.93;;;0.30;;
21833;SDS011;11079;51.092;3.458;2022-09-29T12:23:41;1.50;;;0.43;;
21833;SDS011;11079;51.092;3.458;2022-09-29T12:26:12;0.90;;;0.30;;
21833;SDS011;11079;51.092;3.458;2022-09-29T12:28:44;1.02;;;0.30;;
21833;SDS011;11079;51.092;3.458;2022-09-29T12:36:51;1.23;;;0.43;;
21833;SDS011;11079;51.092;3.458;2022-09-29T12:39:40;2.10;;;0.30;;
21833;SDS011;11079;51.092;3.458;2022-09-29T12:44:56;0.60;;;0.20;;
21833;SDS011;11079;51.092;3.458;2022-09-29T12:47:56;0.52;;;0.40;;
21833;SDS011;11079;51.092;3.458;2022-09-29T12:50:27;0.63;;;0.40;;
21833;SDS011;11079;51.092;3.458;2022-09-29T12:55:40;2.03;;;1.88;;
21833;SDS011;11079;51.092;3.458;2022-09-29T12:58:23;1.25;;;0.73;;
21833;SDS011;11079;51.092;3.458;2022-09-29T13:01:44;0.77;;;0.63;;
21833;SDS011;11079;51.092;3.458;2022-09-29T13:15:22;1.05;;;0.45;;
21833;SDS011;11079;51.092;3.458;2022-09-29T13:21:28;1.02;;;0.57;;
21833;SDS011;11079;51.092;3.458;2022-09-29T13:30:02;1.70;;;0.75;;
21833;SDS011;11079;51.092;3.458;2022-09-29T13:32:38;2.50;;;0.70;;
21833;SDS011;11079;51.092;3.458;2022-09-29T13:35:26;2.05;;;0.80;;
21833;SDS011;11079;51.092;3.458;2022-09-29T13:37:53;1.25;;;0.50;;
21833;SDS011;11079;51.092;3.458;2022-09-29T13:40:25;3.15;;;0.85;;
21833;SDS011;11079;51.092;3.458;2022-09-29T13:42:53;1.02;;;0.73;;
21833;SDS011;11079;51.092;3.458;2022-09-29T13:47:49;1.45;;;0.85;;
21833;SDS011;11079;51.092;3.458;2022-09-29T13:58:33;3.08;;;1.00;;
21833;SDS011;11079;51.092;3.458;2022-09-29T14:01:03;0.95;;;0.80;;
21833;SDS011;11079;51.092;3.458;2022-09-29T14:03:40;1.75;;;0.90;;
21833;SDS011;11079;51.092;3.458;2022-09-29T14:06:14;2.75;;;0.77;;
21833;SDS011;11079;51.092;3.458;2022-09-29T14:08:43;1.75;;;1.13;;
21833;SDS011;11079;51.092;3.458;2022-09-29T14:13:44;1.48;;;0.57;;
21833;SDS011;11079;51.092;3.458;2022-09-29T14:16:23;1.17;;;0.90;;
21833;SDS011;11079;51.092;3.458;2022-09-29T14:19:09;2.08;;;0.60;;
21833;SDS011;11079;51.092;3.458;2022-09-29T14:21:51;3.97;;;1.00;;
21833;SDS011;11079;51.092;3.458;2022-09-29T14:40:24;4.55;;;1.08;;
21833;SDS011;11079;51.092;3.458;2022-09-29T14:43:07;1.40;;;0.50;;
21833;SDS011;11079;51.092;3.458;2022-09-29T14:52:08;1.05;;;0.60;;
21833;SDS011;11079;51.092;3.458;2022-09-29T14:54:46;2.15;;;0.80;;
21833;SDS011;11079;51.092;3.458;2022-09-29T15:00:15;3.53;;;0.80;;
21833;SDS011;11079;51.092;3.458;2022-09-29T15:02:47;3.47;;;1.58;;
21833;SDS011;11079;51.092;3.458;2022-09-29T15:07:52;1.20;;;0.68;;
21833;SDS011;11079;51.092;3.458;2022-09-29T15:10:20;2.92;;;0.98;;
21833;SDS011;11079;51.092;3.458;2022-09-29T15:12:52;2.45;;;0.90;;
21833;SDS011;11079;51.092;3.458;2022-09-29T15:15:38;3.15;;;1.20;;
21833;SDS011;11079;51.092;3.458;2022-09-29T15:26:16;2.70;;;1.48;;
21833;SDS011;11079;51.092;3.458;2022-09-29T15:28:42;2.83;;;1.55;;
21833;SDS011;11079;51.092;3.458;2022-09-29T15:31:09;4.68;;;1.77;;
21833;SDS011;11079;51.092;3.458;2022-09-29T15:36:15;3.10;;;1.75;;
21833;SDS011;11079;51.092;3.458;2022-09-29T15:38:42;2.17;;;1.48;;
21833;SDS011;11079;51.092;3.458;2022-09-29T15:46:19;3.47;;;1.50;;
21833;SDS011;11079;51.092;3.458;2022-09-29T15:52:01;2.70;;;1.42;;
21833;SDS011;11079;51.092;3.458;2022-09-29T15:54:30;1.88;;;1.55;;
21833;SDS011;11079;51.092;3.458;2022-09-29T15:57:04;2.80;;;1.90;;
21833;SDS011;11079;51.092;3.458;2022-09-29T15:59:50;4.28;;;2.20;;
21833;SDS011;11079;51.092;3.458;2022-09-29T16:04:59;3.13;;;2.83;;
21833;SDS011;11079;51.092;3.458;2022-09-29T16:07:32;5.00;;;2.80;;
21833;SDS011;11079;51.092;3.458;2022-09-29T16:10:19;2.65;;;2.15;;
21833;SDS011;11079;51.092;3.458;2022-09-29T16:12:54;3.10;;;1.75;;
21833;SDS011;11079;51.092;3.458;2022-09-29T16:17:54;2.58;;;0.93;;
21833;SDS011;11079;51.092;3.458;2022-09-29T16:20:25;1.67;;;1.40;;
21833;SDS011;11079;51.092;3.458;2022-09-29T16:22:52;1.45;;;0.88;;
21833;SDS011;11079;51.092;3.458;2022-09-29T16:27:55;0.70;;;0.68;;
21833;SDS011;11079;51.092;3.458;2022-09-29T16:30:26;3.08;;;1.40;;
21833;SDS011;11079;51.092;3.458;2022-09-29T16:33:01;1.60;;;1.05;;
21833;SDS011;11079;51.092;3.458;2022-09-29T16:35:39;1.80;;;0.98;;
21833;SDS011;11079;51.092;3.458;2022-09-29T16:40:50;1.50;;;1.13;;
21833;SDS011;11079;51.092;3.458;2022-09-29T16:45:50;2.78;;;2.58;;
21833;SDS011;11079;51.092;3.458;2022-09-29T16:48:17;3.33;;;1.75;;
21833;SDS011;11079;51.092;3.458;2022-09-29T16:50:47;2.13;;;1.40;;
21833;SDS011;11079;51.092;3.458;2022-09-29T16:53:30;3.35;;;1.92;;
21833;SDS011;11079;51.092;3.458;2022-09-29T16:59:13;3.05;;;1.95;;
21833;SDS011;11079;51.092;3.458;2022-09-29T17:01:42;4.43;;;1.65;;
21833;SDS011;11079;51.092;3.458;2022-09-29T17:04:10;2.25;;;1.20;;
21833;SDS011;11079;51.092;3.458;2022-09-29T17:06:36;2.03;;;1.35;;
21833;SDS011;11079;51.092;3.458;2022-09-29T17:09:04;3.15;;;1.30;;
21833;SDS011;11079;51.092;3.458;2022-09-29T17:11:30;4.70;;;1.92;;
21833;SDS011;11079;51.092;3.458;2022-09-29T17:13:56;3.58;;;1.75;;
21833;SDS011;11079;51.092;3.458;2022-09-29T17:16:22;3.35;;;2.30;;
21833;SDS011;11079;51.092;3.458;2022-09-29T17:18:49;2.97;;;2.25;;
21833;SDS011;11079;51.092;3.458;2022-09-29T17:21:17;5.28;;;2.33;;
21833;SDS011;11079;51.092;3.458;2022-09-29T17:23:43;5.15;;;1.98;;
21833;SDS011;11079;51.092;3.458;2022-09-29T17:26:12;3.15;;;2.28;;
21833;SDS011;11079;51.092;3.458;2022-09-29T17:29:05;5.45;;;2.55;;
21833;SDS011;11079;51.092;3.458;2022-09-29T17:31:31;5.88;;;2.88;;
21833;SDS011;11079;51.092;3.458;2022-09-29T17:33:57;5.72;;;2.90;;
21833;SDS011;11079;51.092;3.458;2022-09-29T17:36:22;4.05;;;3.20;;
21833;SDS011;11079;51.092;3.458;2022-09-29T17:38:51;5.38;;;3.42;;
21833;SDS011;11079;51.092;3.458;2022-09-29T17:41:17;7.00;;;3.83;;
21833;SDS011;11079;51.092;3.458;2022-09-29T17:43:44;8.27;;;4.25;;
21833;SDS011;11079;51.092;3.458;2022-09-29T17:46:10;8.13;;;4.38;;
21833;SDS011;11079;51.092;3.458;2022-09-29T17:48:38;7.10;;;4.75;;
21833;SDS011;11079;51.092;3.458;2022-09-29T17:51:05;9.02;;;5.03;;
21833;SDS011;11079;51.092;3.458;2022-09-29T17:53:37;9.98;;;5.63;;
21833;SDS011;11079;51.092;3.458;2022-09-29T17:56:09;10.75;;;5.68;;
21833;SDS011;11079;51.092;3.458;2022-09-29T17:58:50;7.93;;;5.00;;
21833;SDS011;11079;51.092;3.458;2022-09-29T18:01:20;6.65;;;4.78;;
21833;SDS011;11079;51.092;3.458;2022-09-29T18:03:47;6.72;;;5.80;;
21833;SDS011;11079;51.092;3.458;2022-09-29T18:06:35;8.50;;;6.15;;
21833;SDS011;11079;51.092;3.458;2022-09-29T18:09:02;9.85;;;5.78;;
21833;SDS011;11079;51.092;3.458;2022-09-29T18:11:38;10.35;;;6.28;;
21833;SDS011;11079;51.092;3.458;2022-09-29T18:14:04;9.82;;;5.80;;
21833;SDS011;11079;51.092;3.458;2022-09-29T18:16:29;8.40;;;5.20;;
21833;SDS011;11079;51.092;3.458;2022-09-29T18:18:55;8.15;;;5.20;;
21833;SDS011;11079;51.092;3.458;2022-09-29T18:21:22;6.25;;;5.07;;
21833;SDS011;11079;51.092;3.458;2022-09-29T18:23:48;8.90;;;6.18;;
21833;SDS011;11079;51.092;3.458;2022-09-29T18:26:14;11.80;;;6.43;;
21833;SDS011;11079;51.092;3.458;2022-09-29T18:28:40;9.05;;;6.50;;
21833;SDS011;11079;51.092;3.458;2022-09-29T18:31:21;12.77;;;8.23;;
21833;SDS011;11079;51.092;3.458;2022-09-29T18:33:47;14.23;;;9.23;;
21833;SDS011;11079;51.092;3.458;2022-09-29T18:36:13;17.42;;;12.23;;
21833;SDS011;11079;51.092;3.458;2022-09-29T18:38:39;18.10;;;12.35;;
21833;SDS011;11079;51.092;3.458;2022-09-29T18:41:05;15.43;;;12.60;;
21833;SDS011;11079;51.092;3.458;2022-09-29T18:43:34;17.90;;;12.55;;
21833;SDS011;11079;51.092;3.458;2022-09-29T18:46:00;20.23;;;14.77;;
21833;SDS011;11079;51.092;3.458;2022-09-29T18:48:25;22.75;;;16.27;;
21833;SDS011;11079;51.092;3.458;2022-09-29T18:50:51;24.45;;;16.33;;
21833;SDS011;11079;51.092;3.458;2022-09-29T18:53:19;18.48;;;13.02;;
21833;SDS011;11079;51.092;3.458;2022-09-29T18:55:46;16.15;;;12.40;;
21833;SDS011;11079;51.092;3.458;2022-09-29T18:58:19;19.02;;;11.75;;
21833;SDS011;11079;51.092;3.458;2022-09-29T19:00:45;13.32;;;9.70;;